sensor_id;sensor_type;location;lat;lon;timestamp;temperature;humidity
64620;DHT22;51029;51.058;13.826;2023-02-01T00:02:05;4.80;99.90
64620;DHT22;51029;51.058;13.826;2023-02-01T00:04:31;4.60;99.90
64620;DHT22;51029;51.058;13.826;2023-02-01T00:06:56;4.60;99.90
64620;DHT22;51029;51.058;13.826;2023-02-01T00:09:22;4.50;99.90
64620;DHT22;51029;51.058;13.826;2023-02-01T00:11:47;4.40;99.90
64620;DHT22;51029;51.058;13.826;2023-02-01T00:14:13;4.40;99.90
64620;DHT22;51029;51.058;13.826;2023-02-01T00:16:38;4.40;99.90
64620;DHT22;51029;51.058;13.826;2023-02-01T00:19:07;4.50;99.90
64620;DHT22;51029;51.058;13.826;2023-02-01T00:21:33;4.60;99.90
64620;DHT22;51029;51.058;13.826;2023-02-01T00:23:59;4.60;99.90
64620;DHT22;51029;51.058;13.826;2023-02-01T00:26:51;4.50;99.90
64620;DHT22;51029;51.058;13.826;2023-02-01T00:29:18;4.70;99.90
64620;DHT22;51029;51.058;13.826;2023-02-01T00:31:44;4.90;99.90
64620;DHT22;51029;51.058;13.826;2023-02-01T00:34:15;5.00;99.90
64620;DHT22;51029;51.058;13.826;2023-02-01T00:36:42;5.10;99.90
64620;DHT22;51029;51.058;13.826;2023-02-01T00:39:08;5.20;99.90
64620;DHT22;51029;51.058;13.826;2023-02-01T00:41:33;5.20;99.90
64620;DHT22;51029;51.058;13.826;2023-02-01T00:43:59;5.10;99.90
64620;DHT22;51029;51.058;13.826;2023-02-01T00:46:25;5.20;99.90
64620;DHT22;51029;51.058;13.826;2023-02-01T00:48:51;5.20;99.90
64620;DHT22;51029;51.058;13.826;2023-02-01T00:51:21;5.20;99.90
64620;DHT22;51029;51.058;13.826;2023-02-01T00:53:47;5.20;99.90
64620;DHT22;51029;51.058;13.826;2023-02-01T00:56:13;5.20;99.90
64620;DHT22;51029;51.058;13.826;2023-02-01T00:58:39;5.20;99.90
64620;DHT22;51029;51.058;13.826;2023-02-01T01:01:17;5.20;99.90
64620;DHT22;51029;51.058;13.826;2023-02-01T01:03:49;5.10;99.90
64620;DHT22;51029;51.058;13.826;2023-02-01T01:06:19;5.10;99.90
64620;DHT22;51029;51.058;13.826;2023-02-01T01:08:46;5.10;99.90
64620;DHT22;51029;51.058;13.826;2023-02-01T01:11:18;5.10;99.90
64620;DHT22;51029;51.058;13.826;2023-02-01T01:13:46;5.10;99.90
64620;DHT22;51029;51.058;13.826;2023-02-01T01:16:13;5.10;99.90
64620;DHT22;51029;51.058;13.826;2023-02-01T01:18:39;5.10;99.90
64620;DHT22;51029;51.058;13.826;2023-02-01T01:21:06;5.10;99.90
64620;DHT22;51029;51.058;13.826;2023-02-01T01:23:32;5.00;99.90
64620;DHT22;51029;51.058;13.826;2023-02-01T01:25:58;5.00;99.90
64620;DHT22;51029;51.058;13.826;2023-02-01T01:28:24;5.00;99.90
64620;DHT22;51029;51.058;13.826;2023-02-01T01:30:49;5.10;99.90
64620;DHT22;51029;51.058;13.826;2023-02-01T01:33:15;5.20;99.90
64620;DHT22;51029;51.058;13.826;2023-02-01T01:35:41;5.20;99.90
64620;DHT22;51029;51.058;13.826;2023-02-01T01:38:08;5.20;99.90
64620;DHT22;51029;51.058;13.826;2023-02-01T01:40:33;5.20;99.90
64620;DHT22;51029;51.058;13.826;2023-02-01T01:42:59;5.30;99.90
64620;DHT22;51029;51.058;13.826;2023-02-01T01:45:31;5.30;99.90
64620;DHT22;51029;51.058;13.826;2023-02-01T01:48:03;5.30;99.90
64620;DHT22;51029;51.058;13.826;2023-02-01T01:50:35;5.30;99.90
64620;DHT22;51029;51.058;13.826;2023-02-01T01:53:05;5.40;99.90
64620;DHT22;51029;51.058;13.826;2023-02-01T01:55:34;5.30;99.90
64620;DHT22;51029;51.058;13.826;2023-02-01T01:58:04;5.30;99.90
64620;DHT22;51029;51.058;13.826;2023-02-01T02:00:31;5.40;99.90
64620;DHT22;51029;51.058;13.826;2023-02-01T02:03:02;5.30;99.90
64620;DHT22;51029;51.058;13.826;2023-02-01T02:05:29;5.30;99.90
64620;DHT22;51029;51.058;13.826;2023-02-01T02:07:58;5.30;99.90
64620;DHT22;51029;51.058;13.826;2023-02-01T02:10:25;5.30;99.90
64620;DHT22;51029;51.058;13.826;2023-02-01T02:13:11;5.20;99.90
64620;DHT22;51029;51.058;13.826;2023-02-01T02:15:43;5.20;99.90
64620;DHT22;51029;51.058;13.826;2023-02-01T02:18:21;5.30;99.90
64620;DHT22;51029;51.058;13.826;2023-02-01T02:26:35;5.30;99.90
64620;DHT22;51029;51.058;13.826;2023-02-01T02:40:50;5.10;99.90
64620;DHT22;51029;51.058;13.826;2023-02-01T02:43:47;5.10;99.90
64620;DHT22;51029;51.058;13.826;2023-02-01T02:46:38;5.10;99.90
64620;DHT22;51029;51.058;13.826;2023-02-01T02:49:33;5.00;99.90
64620;DHT22;51029;51.058;13.826;2023-02-01T02:52:09;5.00;99.90
64620;DHT22;51029;51.058;13.826;2023-02-01T02:54:57;5.00;99.90
64620;DHT22;51029;51.058;13.826;2023-02-01T02:57:33;5.00;99.90
64620;DHT22;51029;51.058;13.826;2023-02-01T03:00:21;5.10;99.90
64620;DHT22;51029;51.058;13.826;2023-02-01T03:03:06;5.00;99.90
64620;DHT22;51029;51.058;13.826;2023-02-01T03:05:50;5.10;99.90
64620;DHT22;51029;51.058;13.826;2023-02-01T03:08:24;5.10;99.90
64620;DHT22;51029;51.058;13.826;2023-02-01T03:15:56;5.20;99.90
64620;DHT22;51029;51.058;13.826;2023-02-01T03:18:35;5.20;99.90
64620;DHT22;51029;51.058;13.826;2023-02-01T03:21:07;5.20;99.90
64620;DHT22;51029;51.058;13.826;2023-02-01T03:23:36;5.20;99.90
64620;DHT22;51029;51.058;13.826;2023-02-01T03:26:08;5.20;99.90
64620;DHT22;51029;51.058;13.826;2023-02-01T03:28:36;5.20;99.90
64620;DHT22;51029;51.058;13.826;2023-02-01T03:31:05;5.20;99.90
64620;DHT22;51029;51.058;13.826;2023-02-01T03:33:31;5.20;99.90
64620;DHT22;51029;51.058;13.826;2023-02-01T03:36:05;5.20;99.90
64620;DHT22;51029;51.058;13.826;2023-02-01T03:38:39;5.30;99.90
64620;DHT22;51029;51.058;13.826;2023-02-01T03:43:51;5.30;99.90
64620;DHT22;51029;51.058;13.826;2023-02-01T03:46:42;5.30;99.90
64620;DHT22;51029;51.058;13.826;2023-02-01T03:49:10;5.30;99.90
64620;DHT22;51029;51.058;13.826;2023-02-01T03:51:39;5.30;99.90
64620;DHT22;51029;51.058;13.826;2023-02-01T03:54:08;5.30;99.90
64620;DHT22;51029;51.058;13.826;2023-02-01T03:56:37;5.30;99.90
64620;DHT22;51029;51.058;13.826;2023-02-01T03:59:03;5.30;99.90
64620;DHT22;51029;51.058;13.826;2023-02-01T04:01:30;5.40;99.90
64620;DHT22;51029;51.058;13.826;2023-02-01T04:03:57;5.30;99.90
64620;DHT22;51029;51.058;13.826;2023-02-01T04:06:23;5.40;99.90
64620;DHT22;51029;51.058;13.826;2023-02-01T04:08:50;5.30;99.90
64620;DHT22;51029;51.058;13.826;2023-02-01T04:11:16;5.30;99.90
64620;DHT22;51029;51.058;13.826;2023-02-01T04:13:42;5.30;99.90
64620;DHT22;51029;51.058;13.826;2023-02-01T04:16:08;5.30;99.90
64620;DHT22;51029;51.058;13.826;2023-02-01T04:18:33;5.30;99.90
64620;DHT22;51029;51.058;13.826;2023-02-01T04:21:00;5.30;99.90
64620;DHT22;51029;51.058;13.826;2023-02-01T04:23:27;5.30;99.90
64620;DHT22;51029;51.058;13.826;2023-02-01T04:25:53;5.30;99.90
64620;DHT22;51029;51.058;13.826;2023-02-01T04:28:19;5.40;99.90
64620;DHT22;51029;51.058;13.826;2023-02-01T04:30:45;5.40;99.90
64620;DHT22;51029;51.058;13.826;2023-02-01T04:33:11;5.40;99.90
64620;DHT22;51029;51.058;13.826;2023-02-01T04:35:39;5.30;99.90
64620;DHT22;51029;51.058;13.826;2023-02-01T04:38:05;5.30;99.90
64620;DHT22;51029;51.058;13.826;2023-02-01T04:40:30;5.30;99.90
64620;DHT22;51029;51.058;13.826;2023-02-01T04:42:56;5.40;99.90
64620;DHT22;51029;51.058;13.826;2023-02-01T04:45:21;5.30;99.90
64620;DHT22;51029;51.058;13.826;2023-02-01T04:47:47;5.30;99.90
64620;DHT22;51029;51.058;13.826;2023-02-01T04:50:14;5.30;99.90
64620;DHT22;51029;51.058;13.826;2023-02-01T04:52:39;5.20;99.90
64620;DHT22;51029;51.058;13.826;2023-02-01T04:55:06;5.20;99.90
64620;DHT22;51029;51.058;13.826;2023-02-01T04:57:31;5.20;99.90
64620;DHT22;51029;51.058;13.826;2023-02-01T04:59:57;5.20;99.90
64620;DHT22;51029;51.058;13.826;2023-02-01T05:02:22;5.20;99.90
64620;DHT22;51029;51.058;13.826;2023-02-01T05:04:48;5.20;99.90
64620;DHT22;51029;51.058;13.826;2023-02-01T05:07:13;5.20;99.90
64620;DHT22;51029;51.058;13.826;2023-02-01T05:09:39;5.20;99.90
64620;DHT22;51029;51.058;13.826;2023-02-01T05:12:05;5.20;99.90
64620;DHT22;51029;51.058;13.826;2023-02-01T05:14:49;5.20;99.90
64620;DHT22;51029;51.058;13.826;2023-02-01T05:17:15;5.20;99.90
64620;DHT22;51029;51.058;13.826;2023-02-01T05:19:40;5.20;99.90
64620;DHT22;51029;51.058;13.826;2023-02-01T05:22:06;5.20;99.90
64620;DHT22;51029;51.058;13.826;2023-02-01T05:24:31;5.20;99.90
64620;DHT22;51029;51.058;13.826;2023-02-01T05:26:56;5.20;99.90
64620;DHT22;51029;51.058;13.826;2023-02-01T05:29:22;5.20;99.90
64620;DHT22;51029;51.058;13.826;2023-02-01T05:31:48;5.20;99.90
64620;DHT22;51029;51.058;13.826;2023-02-01T05:34:14;5.20;99.90
64620;DHT22;51029;51.058;13.826;2023-02-01T05:36:39;5.20;99.90
64620;DHT22;51029;51.058;13.826;2023-02-01T05:39:05;5.20;99.90
64620;DHT22;51029;51.058;13.826;2023-02-01T05:41:31;5.20;99.90
64620;DHT22;51029;51.058;13.826;2023-02-01T05:43:56;5.20;99.90
64620;DHT22;51029;51.058;13.826;2023-02-01T05:46:22;5.20;99.90
64620;DHT22;51029;51.058;13.826;2023-02-01T05:48:47;5.30;99.90
64620;DHT22;51029;51.058;13.826;2023-02-01T05:51:13;5.30;99.90
64620;DHT22;51029;51.058;13.826;2023-02-01T05:53:38;5.30;99.90
64620;DHT22;51029;51.058;13.826;2023-02-01T05:56:04;5.40;99.90
64620;DHT22;51029;51.058;13.826;2023-02-01T05:58:30;5.40;99.90
64620;DHT22;51029;51.058;13.826;2023-02-01T06:00:56;5.40;99.90
64620;DHT22;51029;51.058;13.826;2023-02-01T06:03:23;5.40;99.90
64620;DHT22;51029;51.058;13.826;2023-02-01T06:05:49;5.40;99.90
64620;DHT22;51029;51.058;13.826;2023-02-01T06:08:14;5.40;99.90
64620;DHT22;51029;51.058;13.826;2023-02-01T06:10:40;5.40;99.90
64620;DHT22;51029;51.058;13.826;2023-02-01T06:13:05;5.40;99.90
64620;DHT22;51029;51.058;13.826;2023-02-01T06:15:31;5.40;99.90
64620;DHT22;51029;51.058;13.826;2023-02-01T06:17:57;5.40;99.90
64620;DHT22;51029;51.058;13.826;2023-02-01T06:20:23;5.40;99.90
64620;DHT22;51029;51.058;13.826;2023-02-01T06:22:49;5.40;99.90
64620;DHT22;51029;51.058;13.826;2023-02-01T06:25:14;5.40;99.90
64620;DHT22;51029;51.058;13.826;2023-02-01T06:27:40;5.40;99.90
64620;DHT22;51029;51.058;13.826;2023-02-01T06:30:06;5.40;99.90
64620;DHT22;51029;51.058;13.826;2023-02-01T06:32:33;5.40;99.90
64620;DHT22;51029;51.058;13.826;2023-02-01T06:34:58;5.40;99.90
64620;DHT22;51029;51.058;13.826;2023-02-01T06:37:25;5.50;99.90
64620;DHT22;51029;51.058;13.826;2023-02-01T06:39:52;5.50;99.90
64620;DHT22;51029;51.058;13.826;2023-02-01T06:42:18;5.40;99.90
64620;DHT22;51029;51.058;13.826;2023-02-01T06:44:43;5.40;99.90
64620;DHT22;51029;51.058;13.826;2023-02-01T06:47:09;5.50;99.90
64620;DHT22;51029;51.058;13.826;2023-02-01T06:49:34;5.40;99.90
64620;DHT22;51029;51.058;13.826;2023-02-01T06:52:00;5.40;99.90
64620;DHT22;51029;51.058;13.826;2023-02-01T06:54:26;5.40;99.90
64620;DHT22;51029;51.058;13.826;2023-02-01T06:56:52;5.40;99.90
64620;DHT22;51029;51.058;13.826;2023-02-01T06:59:18;5.40;99.90
64620;DHT22;51029;51.058;13.826;2023-02-01T07:01:43;5.40;99.90
64620;DHT22;51029;51.058;13.826;2023-02-01T07:04:10;5.40;99.90
64620;DHT22;51029;51.058;13.826;2023-02-01T07:06:36;5.40;99.90
64620;DHT22;51029;51.058;13.826;2023-02-01T07:09:02;5.40;99.90
64620;DHT22;51029;51.058;13.826;2023-02-01T07:11:28;5.40;99.90
64620;DHT22;51029;51.058;13.826;2023-02-01T07:13:53;5.40;99.90
64620;DHT22;51029;51.058;13.826;2023-02-01T07:16:19;5.40;99.90
64620;DHT22;51029;51.058;13.826;2023-02-01T07:18:45;5.50;99.90
64620;DHT22;51029;51.058;13.826;2023-02-01T07:21:11;5.50;99.90
64620;DHT22;51029;51.058;13.826;2023-02-01T07:23:37;5.40;99.90
64620;DHT22;51029;51.058;13.826;2023-02-01T07:26:05;5.40;99.90
64620;DHT22;51029;51.058;13.826;2023-02-01T07:28:33;5.40;99.90
64620;DHT22;51029;51.058;13.826;2023-02-01T07:31:10;5.30;99.90
64620;DHT22;51029;51.058;13.826;2023-02-01T07:33:36;5.30;99.90
64620;DHT22;51029;51.058;13.826;2023-02-01T07:36:04;5.10;99.90
64620;DHT22;51029;51.058;13.826;2023-02-01T07:38:30;5.10;99.90
64620;DHT22;51029;51.058;13.826;2023-02-01T07:41:00;5.00;99.90
64620;DHT22;51029;51.058;13.826;2023-02-01T07:43:26;5.00;99.90
64620;DHT22;51029;51.058;13.826;2023-02-01T07:45:53;5.00;99.90
64620;DHT22;51029;51.058;13.826;2023-02-01T07:48:20;5.00;99.90
64620;DHT22;51029;51.058;13.826;2023-02-01T07:50:46;4.90;99.90
64620;DHT22;51029;51.058;13.826;2023-02-01T07:53:12;4.90;99.90
64620;DHT22;51029;51.058;13.826;2023-02-01T07:55:38;4.90;99.90
64620;DHT22;51029;51.058;13.826;2023-02-01T07:58:04;4.90;99.90
64620;DHT22;51029;51.058;13.826;2023-02-01T08:00:30;4.90;99.90
64620;DHT22;51029;51.058;13.826;2023-02-01T08:03:14;4.90;99.90
64620;DHT22;51029;51.058;13.826;2023-02-01T08:05:40;4.90;99.90
64620;DHT22;51029;51.058;13.826;2023-02-01T08:08:06;4.90;99.90
64620;DHT22;51029;51.058;13.826;2023-02-01T08:10:32;5.00;99.90
64620;DHT22;51029;51.058;13.826;2023-02-01T08:12:59;5.00;99.90
64620;DHT22;51029;51.058;13.826;2023-02-01T08:15:26;5.10;99.90
64620;DHT22;51029;51.058;13.826;2023-02-01T08:17:52;5.10;99.90
64620;DHT22;51029;51.058;13.826;2023-02-01T08:20:19;5.10;99.90
64620;DHT22;51029;51.058;13.826;2023-02-01T08:22:47;5.20;99.90
64620;DHT22;51029;51.058;13.826;2023-02-01T08:25:12;5.10;99.90
64620;DHT22;51029;51.058;13.826;2023-02-01T08:27:38;5.10;99.90
64620;DHT22;51029;51.058;13.826;2023-02-01T08:30:04;5.10;99.90
64620;DHT22;51029;51.058;13.826;2023-02-01T08:32:30;5.10;99.90
64620;DHT22;51029;51.058;13.826;2023-02-01T08:34:56;5.10;99.90
64620;DHT22;51029;51.058;13.826;2023-02-01T08:37:21;5.10;99.90
64620;DHT22;51029;51.058;13.826;2023-02-01T08:39:47;5.00;99.90
64620;DHT22;51029;51.058;13.826;2023-02-01T08:42:15;5.00;99.90
64620;DHT22;51029;51.058;13.826;2023-02-01T08:44:59;5.00;99.90
64620;DHT22;51029;51.058;13.826;2023-02-01T08:47:25;5.00;99.90
64620;DHT22;51029;51.058;13.826;2023-02-01T08:49:51;5.10;99.90
64620;DHT22;51029;51.058;13.826;2023-02-01T08:52:17;5.10;99.90
64620;DHT22;51029;51.058;13.826;2023-02-01T08:54:42;5.20;99.90
64620;DHT22;51029;51.058;13.826;2023-02-01T08:57:08;5.30;99.90
64620;DHT22;51029;51.058;13.826;2023-02-01T08:59:34;5.30;99.90
64620;DHT22;51029;51.058;13.826;2023-02-01T09:02:00;5.50;99.90
64620;DHT22;51029;51.058;13.826;2023-02-01T09:04:26;5.60;99.90
64620;DHT22;51029;51.058;13.826;2023-02-01T09:06:51;5.80;99.90
64620;DHT22;51029;51.058;13.826;2023-02-01T09:09:17;5.90;99.90
64620;DHT22;51029;51.058;13.826;2023-02-01T09:11:42;5.90;99.90
64620;DHT22;51029;51.058;13.826;2023-02-01T09:14:07;6.00;99.90
64620;DHT22;51029;51.058;13.826;2023-02-01T09:16:33;6.00;99.90
64620;DHT22;51029;51.058;13.826;2023-02-01T09:18:59;6.00;99.90
64620;DHT22;51029;51.058;13.826;2023-02-01T09:21:24;6.10;99.90
64620;DHT22;51029;51.058;13.826;2023-02-01T09:23:53;6.10;99.90
64620;DHT22;51029;51.058;13.826;2023-02-01T09:26:19;6.10;99.90
64620;DHT22;51029;51.058;13.826;2023-02-01T09:28:44;6.10;99.90
64620;DHT22;51029;51.058;13.826;2023-02-01T09:31:10;6.00;99.90
64620;DHT22;51029;51.058;13.826;2023-02-01T09:33:35;6.00;99.90
64620;DHT22;51029;51.058;13.826;2023-02-01T09:36:03;5.90;99.90
64620;DHT22;51029;51.058;13.826;2023-02-01T09:38:29;5.90;99.90
64620;DHT22;51029;51.058;13.826;2023-02-01T09:40:56;5.80;99.90
64620;DHT22;51029;51.058;13.826;2023-02-01T09:43:41;6.00;99.90
64620;DHT22;51029;51.058;13.826;2023-02-01T09:46:23;6.10;99.90
64620;DHT22;51029;51.058;13.826;2023-02-01T09:49:00;6.00;99.90
64620;DHT22;51029;51.058;13.826;2023-02-01T09:51:34;5.90;99.90
64620;DHT22;51029;51.058;13.826;2023-02-01T09:54:40;5.70;99.90
64620;DHT22;51029;51.058;13.826;2023-02-01T09:57:17;5.50;99.90
64620;DHT22;51029;51.058;13.826;2023-02-01T09:59:49;5.30;99.90
64620;DHT22;51029;51.058;13.826;2023-02-01T10:02:25;5.10;99.90
64620;DHT22;51029;51.058;13.826;2023-02-01T10:04:54;5.00;99.90
64620;DHT22;51029;51.058;13.826;2023-02-01T10:08:17;4.70;99.90
64620;DHT22;51029;51.058;13.826;2023-02-01T10:10:45;4.60;99.90
64620;DHT22;51029;51.058;13.826;2023-02-01T10:16:25;4.30;99.90
64620;DHT22;51029;51.058;13.826;2023-02-01T10:21:53;4.20;99.90
64620;DHT22;51029;51.058;13.826;2023-02-01T10:24:35;4.20;99.90
64620;DHT22;51029;51.058;13.826;2023-02-01T10:27:12;4.20;99.90
64620;DHT22;51029;51.058;13.826;2023-02-01T10:29:41;4.20;99.90
64620;DHT22;51029;51.058;13.826;2023-02-01T10:32:16;4.20;99.90
64620;DHT22;51029;51.058;13.826;2023-02-01T10:34:44;4.30;99.90
64620;DHT22;51029;51.058;13.826;2023-02-01T10:37:28;4.20;99.90
64620;DHT22;51029;51.058;13.826;2023-02-01T10:39:56;4.30;99.90
64620;DHT22;51029;51.058;13.826;2023-02-01T10:42:25;4.30;99.90
64620;DHT22;51029;51.058;13.826;2023-02-01T10:44:53;4.40;99.90
64620;DHT22;51029;51.058;13.826;2023-02-01T10:47:19;4.40;99.90
64620;DHT22;51029;51.058;13.826;2023-02-01T10:52:51;4.50;99.90
64620;DHT22;51029;51.058;13.826;2023-02-01T10:55:38;4.60;99.90
64620;DHT22;51029;51.058;13.826;2023-02-01T10:58:07;4.70;99.90
64620;DHT22;51029;51.058;13.826;2023-02-01T11:00:45;4.80;99.90
64620;DHT22;51029;51.058;13.826;2023-02-01T11:05:55;4.90;99.90
64620;DHT22;51029;51.058;13.826;2023-02-01T11:08:21;5.00;99.90
64620;DHT22;51029;51.058;13.826;2023-02-01T11:10:49;5.10;99.90
64620;DHT22;51029;51.058;13.826;2023-02-01T11:13:31;5.10;99.90
64620;DHT22;51029;51.058;13.826;2023-02-01T11:16:02;5.20;99.90
64620;DHT22;51029;51.058;13.826;2023-02-01T11:18:30;5.20;99.90
64620;DHT22;51029;51.058;13.826;2023-02-01T11:20:56;5.30;99.90
64620;DHT22;51029;51.058;13.826;2023-02-01T11:23:27;5.40;99.90
64620;DHT22;51029;51.058;13.826;2023-02-01T11:25:59;5.40;99.90
64620;DHT22;51029;51.058;13.826;2023-02-01T11:28:33;5.50;99.90
64620;DHT22;51029;51.058;13.826;2023-02-01T11:31:03;5.50;99.90
64620;DHT22;51029;51.058;13.826;2023-02-01T11:33:35;5.50;99.90
64620;DHT22;51029;51.058;13.826;2023-02-01T11:36:07;5.50;99.90
64620;DHT22;51029;51.058;13.826;2023-02-01T11:38:34;5.50;99.90
64620;DHT22;51029;51.058;13.826;2023-02-01T11:41:13;5.60;99.90
64620;DHT22;51029;51.058;13.826;2023-02-01T11:43:51;5.60;99.90
64620;DHT22;51029;51.058;13.826;2023-02-01T11:46:18;5.60;99.90
64620;DHT22;51029;51.058;13.826;2023-02-01T11:48:51;5.60;99.90
64620;DHT22;51029;51.058;13.826;2023-02-01T11:51:36;5.70;99.90
64620;DHT22;51029;51.058;13.826;2023-02-01T11:54:07;5.90;99.90
64620;DHT22;51029;51.058;13.826;2023-02-01T11:56:53;5.90;99.90
64620;DHT22;51029;51.058;13.826;2023-02-01T12:02:32;5.90;99.90
64620;DHT22;51029;51.058;13.826;2023-02-01T12:13:16;5.70;99.90
64620;DHT22;51029;51.058;13.826;2023-02-01T12:36:07;6.00;99.90
64620;DHT22;51029;51.058;13.826;2023-02-01T12:38:44;6.00;99.90
64620;DHT22;51029;51.058;13.826;2023-02-01T12:44:07;6.00;99.90
64620;DHT22;51029;51.058;13.826;2023-02-01T12:46:37;6.00;99.90
64620;DHT22;51029;51.058;13.826;2023-02-01T12:51:45;6.10;99.90
64620;DHT22;51029;51.058;13.826;2023-02-01T12:54:24;6.20;99.90
64620;DHT22;51029;51.058;13.826;2023-02-01T12:56:59;6.20;99.90
64620;DHT22;51029;51.058;13.826;2023-02-01T13:02:47;6.20;99.90
64620;DHT22;51029;51.058;13.826;2023-02-01T13:05:20;6.30;99.90
64620;DHT22;51029;51.058;13.826;2023-02-01T13:08:00;6.40;99.90
64620;DHT22;51029;51.058;13.826;2023-02-01T13:10:54;6.50;99.90
64620;DHT22;51029;51.058;13.826;2023-02-01T13:18:57;6.40;99.90
64620;DHT22;51029;51.058;13.826;2023-02-01T13:21:27;6.50;99.90
64620;DHT22;51029;51.058;13.826;2023-02-01T13:23:54;6.50;99.90
64620;DHT22;51029;51.058;13.826;2023-02-01T13:26:20;6.60;99.90
64620;DHT22;51029;51.058;13.826;2023-02-01T13:29:02;6.70;99.90
64620;DHT22;51029;51.058;13.826;2023-02-01T13:34:40;6.60;99.90
64620;DHT22;51029;51.058;13.826;2023-02-01T13:45:20;6.60;99.90
64620;DHT22;51029;51.058;13.826;2023-02-01T13:47:50;6.60;99.90
64620;DHT22;51029;51.058;13.826;2023-02-01T13:50:37;6.60;99.90
64620;DHT22;51029;51.058;13.826;2023-02-01T13:58:18;6.70;99.90
64620;DHT22;51029;51.058;13.826;2023-02-01T14:00:45;6.70;99.90
64620;DHT22;51029;51.058;13.826;2023-02-01T14:03:19;6.70;99.90
64620;DHT22;51029;51.058;13.826;2023-02-01T14:08:14;6.70;99.90
64620;DHT22;51029;51.058;13.826;2023-02-01T14:10:53;6.60;99.90
64620;DHT22;51029;51.058;13.826;2023-02-01T14:13:29;6.60;99.90
64620;DHT22;51029;51.058;13.826;2023-02-01T14:21:22;6.60;99.90
64620;DHT22;51029;51.058;13.826;2023-02-01T14:26:24;6.70;99.90
64620;DHT22;51029;51.058;13.826;2023-02-01T14:28:56;6.70;99.90
64620;DHT22;51029;51.058;13.826;2023-02-01T14:31:44;6.70;99.90
64620;DHT22;51029;51.058;13.826;2023-02-01T14:34:19;6.70;99.90
64620;DHT22;51029;51.058;13.826;2023-02-01T14:36:52;6.70;99.90
64620;DHT22;51029;51.058;13.826;2023-02-01T14:39:31;6.70;99.90
64620;DHT22;51029;51.058;13.826;2023-02-01T14:42:20;6.70;99.90
64620;DHT22;51029;51.058;13.826;2023-02-01T14:44:47;6.70;99.90
64620;DHT22;51029;51.058;13.826;2023-02-01T14:57:54;6.50;99.90
64620;DHT22;51029;51.058;13.826;2023-02-01T15:02:51;6.50;99.90
64620;DHT22;51029;51.058;13.826;2023-02-01T15:05:33;6.50;99.90
64620;DHT22;51029;51.058;13.826;2023-02-01T15:08:19;6.50;99.90
64620;DHT22;51029;51.058;13.826;2023-02-01T15:10:49;6.40;99.90
64620;DHT22;51029;51.058;13.826;2023-02-01T15:13:24;6.40;99.90
64620;DHT22;51029;51.058;13.826;2023-02-01T15:16:04;6.40;99.90
64620;DHT22;51029;51.058;13.826;2023-02-01T15:18:31;6.40;99.90
64620;DHT22;51029;51.058;13.826;2023-02-01T15:20:58;6.40;99.90
64620;DHT22;51029;51.058;13.826;2023-02-01T15:23:24;6.40;99.90
64620;DHT22;51029;51.058;13.826;2023-02-01T15:25:49;6.40;99.90
64620;DHT22;51029;51.058;13.826;2023-02-01T15:28:16;6.30;99.90
64620;DHT22;51029;51.058;13.826;2023-02-01T15:31:03;6.20;99.90
64620;DHT22;51029;51.058;13.826;2023-02-01T15:33:31;6.10;99.90
64620;DHT22;51029;51.058;13.826;2023-02-01T15:38:39;5.90;99.90
64620;DHT22;51029;51.058;13.826;2023-02-01T15:41:17;5.90;99.90
64620;DHT22;51029;51.058;13.826;2023-02-01T15:43:44;5.90;99.90
64620;DHT22;51029;51.058;13.826;2023-02-01T15:46:16;5.80;99.90
64620;DHT22;51029;51.058;13.826;2023-02-01T15:48:49;5.80;99.90
64620;DHT22;51029;51.058;13.826;2023-02-01T15:51:19;5.80;99.90
64620;DHT22;51029;51.058;13.826;2023-02-01T15:53:56;5.90;99.90
64620;DHT22;51029;51.058;13.826;2023-02-01T15:56:24;5.90;99.90
64620;DHT22;51029;51.058;13.826;2023-02-01T15:58:53;5.90;99.90
64620;DHT22;51029;51.058;13.826;2023-02-01T16:01:20;6.00;99.90
64620;DHT22;51029;51.058;13.826;2023-02-01T16:03:46;6.00;99.90
64620;DHT22;51029;51.058;13.826;2023-02-01T16:09:12;6.00;99.90
64620;DHT22;51029;51.058;13.826;2023-02-01T16:11:51;6.00;99.90
64620;DHT22;51029;51.058;13.826;2023-02-01T16:14:17;6.10;99.90
64620;DHT22;51029;51.058;13.826;2023-02-01T16:16:42;6.10;99.90
64620;DHT22;51029;51.058;13.826;2023-02-01T16:19:08;6.00;99.90
64620;DHT22;51029;51.058;13.826;2023-02-01T16:21:34;5.90;99.90
64620;DHT22;51029;51.058;13.826;2023-02-01T16:23:59;5.80;99.90
64620;DHT22;51029;51.058;13.826;2023-02-01T16:26:30;5.70;99.90
64620;DHT22;51029;51.058;13.826;2023-02-01T16:28:56;5.60;99.90
64620;DHT22;51029;51.058;13.826;2023-02-01T16:31:26;5.60;99.90
64620;DHT22;51029;51.058;13.826;2023-02-01T16:33:52;5.50;99.90
64620;DHT22;51029;51.058;13.826;2023-02-01T16:36:18;5.40;99.90
64620;DHT22;51029;51.058;13.826;2023-02-01T16:38:44;5.30;99.90
64620;DHT22;51029;51.058;13.826;2023-02-01T16:41:16;5.30;99.90
64620;DHT22;51029;51.058;13.826;2023-02-01T16:43:42;5.30;99.90
64620;DHT22;51029;51.058;13.826;2023-02-01T16:46:15;5.20;99.90
64620;DHT22;51029;51.058;13.826;2023-02-01T16:48:42;5.10;99.90
64620;DHT22;51029;51.058;13.826;2023-02-01T16:51:13;5.10;99.90
64620;DHT22;51029;51.058;13.826;2023-02-01T16:53:39;5.00;99.90
64620;DHT22;51029;51.058;13.826;2023-02-01T16:56:24;4.90;99.90
64620;DHT22;51029;51.058;13.826;2023-02-01T16:58:51;4.80;99.90
64620;DHT22;51029;51.058;13.826;2023-02-01T17:01:18;4.70;99.90
64620;DHT22;51029;51.058;13.826;2023-02-01T17:03:44;4.60;99.90
64620;DHT22;51029;51.058;13.826;2023-02-01T17:06:12;4.60;99.90
64620;DHT22;51029;51.058;13.826;2023-02-01T17:08:41;4.50;99.90
64620;DHT22;51029;51.058;13.826;2023-02-01T17:11:07;4.30;99.90
64620;DHT22;51029;51.058;13.826;2023-02-01T17:13:34;4.20;99.90
64620;DHT22;51029;51.058;13.826;2023-02-01T17:16:03;3.90;99.90
64620;DHT22;51029;51.058;13.826;2023-02-01T17:18:32;3.30;99.90
64620;DHT22;51029;51.058;13.826;2023-02-01T17:20:58;3.00;99.90
64620;DHT22;51029;51.058;13.826;2023-02-01T17:23:25;2.80;99.90
64620;DHT22;51029;51.058;13.826;2023-02-01T17:25:51;2.80;99.90
64620;DHT22;51029;51.058;13.826;2023-02-01T17:28:17;2.80;99.90
64620;DHT22;51029;51.058;13.826;2023-02-01T17:30:42;2.80;99.90
64620;DHT22;51029;51.058;13.826;2023-02-01T17:33:25;2.70;99.90
64620;DHT22;51029;51.058;13.826;2023-02-01T17:35:52;2.70;99.90
64620;DHT22;51029;51.058;13.826;2023-02-01T17:38:18;2.80;99.90
64620;DHT22;51029;51.058;13.826;2023-02-01T17:40:43;2.80;99.90
64620;DHT22;51029;51.058;13.826;2023-02-01T17:43:15;2.70;99.90
64620;DHT22;51029;51.058;13.826;2023-02-01T17:45:48;2.70;99.90
64620;DHT22;51029;51.058;13.826;2023-02-01T17:48:17;2.70;99.90
64620;DHT22;51029;51.058;13.826;2023-02-01T17:50:44;2.60;99.90
64620;DHT22;51029;51.058;13.826;2023-02-01T17:53:11;2.60;99.90
64620;DHT22;51029;51.058;13.826;2023-02-01T17:55:41;2.70;99.90